Osgood, Indiana
Current Conditions -  °F | °C
As of 5:33 AM on Thursday 18 Dec 2014 (Local Time) from KIMS Reporting Station
Overcast Overcast  
Wind Chill: 28°   Ceiling: 1300
Heat Index: 28°   Visibility: 10mi
Dew Point: 21°   Wind: 3mph
Humidity: 74%   Direction: 60°ENE
Pressure: 30.28"   Gusts: NA
Location:  39.13°N, 85.29°W
Report Text: KIMS 181033Z AUTO 06003KT 10SM OVC013 M02/M06 A3028 RMK AO1
Loading
Personal Weather Stations






























Interactive Weather Map New forecast layout! Learn more

10-Day Weather Forecast

Advertisements
Track Severe Weather on mobile